ADDS METAR Data INFO
IDs: Format: Raw Decoded Include TAF

Data at: 1333 UTC 25 Sep 2017

KBPG 251315Z AUTO 14010G20KT 10SM SCT016 OVC022 22/19 A2990 RMK AO2 LTG DSNT N AND S T02150188
KBPG 251255Z AUTO 13008G15KT 10SM BKN016 BKN022 OVC029 21/19 A2991 RMK AO2 LTG DSNT S T02130190
KBPG 251235Z AUTO 14006G14KT 10SM SCT020 BKN028 BKN090 21/19 A2990 RMK AO2 LTG DSNT S T02110188
KBPG 251215Z AUTO 14007KT 10SM SCT026 BKN090 21/19 A2989 RMK AO2 LTG DSNT N AND S T02110189
KBPG 251155Z AUTO 14007G15KT 10SM SCT021 SCT090 21/19 A2989 RMK AO2 LTG DSNT S 70003 T02110190 10216 20208
KBPG 251135Z AUTO 13008G15KT 10SM BKN021 BKN090 21/19 A2989 RMK AO2 LTG DSNT S T02140190
KBPG 251115Z AUTO 14011G15KT 10SM OVC023 22/19 A2989 RMK AO2 LTG DSNT S T02150191
KBPG 251055Z AUTO 14008KT 10SM OVC025 22/19 A2989 RMK AO2 LTG DSNT S T02150191
KBPG 251035Z AUTO 14008G15KT 10SM OVC027 22/19 A2989 RMK AO2 LTG DSNT N T02150190
KBPG 251015Z AUTO 14006KT 10SM BKN029 BKN039 OVC060 22/19 A2990 RMK AO2 T02150190
KBPG 250955Z AUTO 14006KT 10SM SCT028 BKN046 OVC055 22/19 A2990 RMK AO2 LTG DSNT N T02150191
KBPG 250935Z AUTO 14008KT 10SM SCT048 BKN055 BKN110 21/19 A2989 RMK AO2 T02130191
KBPG 250915Z AUTO 13006KT 10SM SCT046 SCT075 BKN110 21/19 A2990 RMK AO2 T02110190
KBPG 250855Z AUTO 13007KT 10SM SCT080 21/19 A2990 RMK AO2 T02100188
KBPG 250835Z AUTO 13007KT 10SM SCT042 SCT048 BKN075 21/19 A2990 RMK AO2 LTG DSNT NW T02110186
KBPG 250815Z AUTO 12006KT 10SM OVC044 21/19 A2991 RMK AO2 T02130186
KBPG 250755Z AUTO 12009KT 10SM BKN044 OVC050 22/18 A2990 RMK AO2 T02150184
KBPG 250735Z AUTO 11005KT 10SM OVC048 21/18 A2991 RMK AO2 LTG DSNT NW T02130180
KBPG 250715Z AUTO 10003KT 10SM BKN050 21/18 A2990 RMK AO2 LTG DSNT NW T02130178
KBPG 250655Z AUTO 00000KT 10SM SCT060 21/18 A2991 RMK AO2 LTG DSNT N T02090178
KBPG 250635Z AUTO 00000KT 10SM OVC060 22/18 A2991 RMK AO2 T02150179
KBPG 250615Z AUTO 10004KT 10SM BKN060 22/18 A2991 RMK AO2 LTG DSNT W T02150178
KBPG 250555Z AUTO 11005KT 10SM BKN060 22/18 A2991 RMK AO2 T02150177 10246 20212 402500190
KBPG 250535Z AUTO 11005KT 10SM BKN060 OVC110 21/18 A2992 RMK AO2 T02130178
KBPG 250515Z AUTO 11003KT 10SM SCT060 OVC110 21/18 A2992 RMK AO2 LTG DSNT W T02130178
KBPG 250455Z AUTO 12004KT 10SM BKN110 21/18 A2992 RMK AO2 T02130180
KBPG 250435Z AUTO 11005KT 10SM SCT100 22/18 A2992 RMK AO2 T02150180
KBPG 250415Z AUTO 11005KT 10SM SCT100 21/18 A2993 RMK AO2 T02140182
KBPG 250355Z AUTO 00000KT 10SM SCT100 21/18 A2992 RMK AO2 T02130183
KBPG 250335Z AUTO 00000KT 10SM CLR 21/18 A2992 RMK AO2 T02130184
KBPG 250315Z AUTO 00000KT 10SM CLR 22/18 A2992 RMK AO2 T02150184
KBPG 250255Z AUTO 00000KT 10SM SCT100 22/19 A2992 RMK AO2 T02170185
KBPG 250235Z AUTO 00000KT 10SM CLR 22/18 A2992 RMK AO2 T02190183
KBPG 250215Z AUTO 00000KT 10SM SCT100 22/18 A2991 RMK AO2 T02220183
KBPG 250155Z AUTO 14003KT 10SM BKN100 23/18 A2991 RMK AO2 T02300181
KBPG 250135Z AUTO 14006KT 10SM SCT110 23/18 A2990 RMK AO2 T02300181
KBPG 250115Z AUTO 14003KT 10SM SCT100 SCT120 23/18 A2989 RMK AO2 T02310182
KBPG 250055Z AUTO 13005KT 10SM SCT100 SCT120 24/19 A2989 RMK AO2 T02350185
KBPG 250035Z AUTO 13008KT 10SM SCT028 BKN100 24/19 A2989 RMK AO2 T02400186
KBPG 250015Z AUTO 14007KT 10SM BKN100 24/19 A2989 RMK AO2 T02430187
KBPG 242355Z AUTO 15009G16KT 10SM BKN100 25/19 A2989 RMK AO2 T02450185 10247 20235
KBPG 242335Z AUTO 13009G16KT 10SM SCT038 SCT080 BKN100 24/19 A2988 RMK AO2 T02440191
KBPG 242315Z AUTO 14010KT 10SM BKN038 BKN080 BKN110 24/19 A2989 RMK AO2 T02400191
KBPG 242255Z AUTO 15013G18KT 10SM SCT080 SCT110 24/19 A2989 RMK AO2 T02410193
KBPG 242235Z AUTO 14012G18KT 10SM SCT041 SCT085 24/19 A2989 RMK AO2 T02400193
KBPG 242215Z AUTO 14013G17KT 10SM SCT027 BKN034 OVC041 25/19 A2989 RMK AO2 T02470190
KBPG 242155Z AUTO 13013G16KT 10SM BKN027 BKN036 OVC090 24/19 A2989 RMK AO2 T02430194
KBPG 242135Z AUTO 11008KT 10SM SCT029 SCT040 OVC090 24/20 A2989 RMK AO2 T02390197
KBPG 242115Z AUTO 12011G17KT 10SM OVC075 24/20 A2989 RMK AO2 T02380197
KBPG 242055Z AUTO 13011G16KT 10SM SCT065 OVC075 24/20 A2990 RMK AO2 T02360197
KBPG 242035Z AUTO 14012G17KT 10SM SCT031 SCT037 OVC060 24/19 A2991 RMK AO2 T02400194
KBPG 242015Z AUTO 15006G16KT 7SM SCT032 BKN038 OVC048 24/20 A2991 RMK AO2 T02350197
KBPG 241955Z AUTO 16006KT 7SM SCT037 BKN045 OVC055 24/20 A2991 RMK AO2 T02370195
KBPG 241935Z AUTO 15009G15KT 10SM SCT036 BKN046 OVC055 25/19 A2991 RMK AO2 T02470190
KBPG 241915Z AUTO 15008KT 10SM SCT028 BKN041 OVC055 24/19 A2992 RMK AO2 T02420189
KBPG 241855Z AUTO 17009G15KT 10SM SCT025 SCT032 OVC039 24/19 A2992 RMK AO2 T02420188
KBPG 241835Z AUTO 16007KT 10SM SCT027 BKN034 OVC043 24/19 A2993 RMK AO2 T02400189
KBPG 241815Z AUTO 16009G17KT 10SM BKN025 OVC033 24/19 A2993 RMK AO2 T02370191
KBPG 241755Z AUTO 16004KT 10SM OVC025 24/19 A2994 RMK AO2 60003 T02350191 10235 20197
KBPG 241735Z AUTO 15006KT 10SM BKN025 OVC034 23/19 A2994 RMK AO2 T02330190
KBPG 241715Z AUTO 15008G14KT 10SM BKN021 BKN029 OVC034 23/19 A2994 RMK AO2 T02300190
KBPG 241655Z AUTO 15005G14KT 10SM OVC019 22/19 A2995 RMK AO2 T02230190
KBPG 241635Z AUTO 15007KT 10SM OVC019 22/19 A2995 RMK AO2 T02210190
KBPG 241615Z AUTO 14007G14KT 10SM OVC019 22/19 A2995 RMK AO2 T02200189
KBPG 241555Z AUTO 14005KT 10SM OVC019 22/19 A2994 RMK AO2 T02180190
KBPG 241535Z AUTO 14009KT 10SM OVC017 22/19 A2994 RMK AO2 T02150188
KBPG 241515Z AUTO 13006KT 10SM OVC017 21/19 A2994 RMK AO2 T02120189
KBPG 241455Z AUTO 14007KT 10SM OVC017 21/19 A2993 RMK AO2 60003 T02100188
KBPG 241435Z AUTO 14005KT 10SM OVC017 21/19 A2993 RMK AO2 T02080186
KBPG 241415Z AUTO 14005KT 10SM OVC019 21/19 A2992 RMK AO2 T02060187
KBPG 241355Z AUTO 15004KT 10SM OVC021 21/19 A2992 RMK AO2 P0001 T02060186
KBPG 241335Z AUTO 15005KT 10SM OVC021 21/19 A2991 RMK AO2 P0001 T02050186
KBPG 241315Z AUTO 14005KT 10SM OVC025 20/19 A2989 RMK AO2 T02020186
KBPG 241255Z AUTO 14005KT 10SM SCT014 OVC025 20/19 A2990 RMK AO2 P0002 T02020188
KBPG 241235Z AUTO 14004KT 10SM BKN016 OVC023 20/19 A2990 RMK AO2 P0002 T02030189
KBPG 241215Z AUTO 00000KT 4SM BKN016 OVC025 20/19 A2990 RMK AO2 P0002 T02010188
KBPG 241155Z AUTO 00000KT 10SM BKN017 OVC025 20/18 A2990 RMK AO2 P0006 60009 70009 T01960184 10250 20190
KBPG 241135Z AUTO 00000KT 10SM BKN015 OVC020 19/18 A2991 RMK AO2 LTG DSNT NW P0006 T01920183
KBPG 241115Z AUTO 00000KT 5SM BKN017 BKN023 OVC028 19/18 A2991 RMK AO2 LTG DSNT N P0003 T01910177
KBPG 241055Z AUTO 29005KT 7SM SCT023 OVC030 21/19 A2991 RMK AO2 LTG DSNT W THRU N T02140185
KBPG 241035Z AUTO 15012G18KT 10SM BKN032 BKN042 OVC070 22/18 A2989 RMK AO2 LTG DSNT SW THRU N T02190184
KBPG 241015Z AUTO 15013G20KT 10SM OVC034 22/19 A2989 RMK AO2 LTG DSNT W T02180186
KBPG 240955Z AUTO 14010G17KT 10SM BKN034 OVC040 22/19 A2989 RMK AO2 LTG DSNT SW THRU N P0002 T02200189
KBPG 240935Z AUTO 14014G20KT 10SM VCTS BKN036 BKN043 OVC049 22/19 A2988 RMK AO2 LTG DSNT N AND W P0002 T02200191
KBPG 240915Z AUTO 14014G18KT 10SM SCT027 BKN036 OVC045 22/20 A2988 RMK AO2 LTG DSNT SW AND W P0001 T02200196
KBPG 240855Z AUTO 14011G18KT 7SM SCT026 BKN031 OVC037 23/19 A2989 RMK AO2 LTG DSNT SW AND W P0001 60001 T02250193
KBPG 240835Z AUTO 14010G18KT 10SM BKN027 OVC038 24/18 A2989 RMK AO2 LTG DSNT NW T02400183
KBPG 240815Z AUTO 14015G22KT 10SM SCT027 BKN036 OVC120 24/18 A2989 RMK AO2 LTG DSNT NW T02400182
KBPG 240755Z AUTO 14014G24KT 10SM SCT027 SCT055 BKN120 24/18 A2989 RMK AO2 T02400179
KBPG 240735Z AUTO 14012G16KT 10SM SCT055 SCT120 24/17 A2988 RMK AO2 T02400174
KBPG 240715Z AUTO 14014G21KT 10SM CLR 24/17 A2988 RMK AO2 LTG DSNT NW T02410172
KBPG 240655Z AUTO 13020G25KT 10SM CLR 24/17 A2986 RMK AO2 LTG DSNT S T02430170
KBPG 240635Z AUTO 13016G21KT 10SM CLR 25/16 A2987 RMK AO2 LTG DSNT W T02450162
KBPG 240615Z AUTO 13010G22KT 10SM CLR 25/16 A2987 RMK AO2 LTG DSNT W T02470157
KBPG 240555Z AUTO 13012G23KT 10SM CLR 25/15 A2986 RMK AO2 LTG DSNT W AND NW T02500150 10290 20250 403160213
KBPG 240535Z AUTO 12012G19KT 10SM SCT075 25/15 A2986 RMK AO2 LTG DSNT W T02520145
KBPG 240515Z AUTO 12007G17KT 10SM BKN075 26/15 A2987 RMK AO2 T02550150
KBPG 240455Z AUTO 13010G16KT 10SM BKN075 26/15 A2987 RMK AO2 T02560151
KBPG 240435Z AUTO 12006KT 10SM OVC075 26/15 A2987 RMK AO2 T02580152
KBPG 240415Z AUTO 13010KT 10SM OVC075 26/15 A2987 RMK AO2 T02600153
KBPG 240355Z AUTO 13009G14KT 10SM SCT075 26/15 A2986 RMK AO2 T02610154
KBPG 240335Z AUTO 13010G17KT 10SM CLR 26/16 A2987 RMK AO2 T02630156
KBPG 240315Z AUTO 12011G18KT 10SM CLR 27/16 A2986 RMK AO2 LTG DSNT SW T02660157
KBPG 240255Z AUTO 12009KT 10SM CLR 27/16 A2985 RMK AO2 T02670155
KBPG 240235Z AUTO 12008G14KT 10SM CLR 27/16 A2986 RMK AO2 T02700156
KBPG 240215Z AUTO 12010G15KT 10SM CLR 27/16 A2986 RMK AO2 T02720155
KBPG 240155Z AUTO 12007KT 10SM CLR 27/15 A2986 RMK AO2 T02720151
KBPG 240135Z AUTO 00000KT 10SM CLR 27/15 A2985 RMK AO2 T02720148